sensor_id;sensor_type;location;lat;lon;timestamp;pressure;altitude;pressure_sealevel;temperature;humidity
18697;BME280;22617;43.690;27.956;2024-01-06T00:00:14;98771.66;;;8.04;100.00
18697;BME280;22617;43.690;27.956;2024-01-06T00:05:18;98768.22;;;8.08;100.00
18697;BME280;22617;43.690;27.956;2024-01-06T00:10:22;98765.63;;;8.17;100.00
18697;BME280;22617;43.690;27.956;2024-01-06T00:15:27;98763.94;;;8.31;100.00
18697;BME280;22617;43.690;27.956;2024-01-06T00:20:30;98765.69;;;8.46;100.00
18697;BME280;22617;43.690;27.956;2024-01-06T00:25:33;98751.84;;;8.52;100.00
18697;BME280;22617;43.690;27.956;2024-01-06T00:30:38;98757.03;;;8.56;100.00
18697;BME280;22617;43.690;27.956;2024-01-06T00:35:42;98752.72;;;8.66;100.00
18697;BME280;22617;43.690;27.956;2024-01-06T00:40:46;98745.78;;;8.77;100.00
18697;BME280;22617;43.690;27.956;2024-01-06T00:45:51;98717.19;;;8.75;100.00
18697;BME280;22617;43.690;27.956;2024-01-06T00:50:54;98731.06;;;8.78;100.00
18697;BME280;22617;43.690;27.956;2024-01-06T00:55:58;98723.25;;;8.73;100.00
18697;BME280;22617;43.690;27.956;2024-01-06T01:01:03;98715.47;;;8.71;100.00
18697;BME280;22617;43.690;27.956;2024-01-06T01:06:06;98705.09;;;8.71;100.00
18697;BME280;22617;43.690;27.956;2024-01-06T01:11:11;98707.66;;;8.73;100.00
18697;BME280;22617;43.690;27.956;2024-01-06T01:16:16;98695.56;;;8.61;100.00
18697;BME280;22617;43.690;27.956;2024-01-06T01:21:20;98688.63;;;8.65;100.00
18697;BME280;22617;43.690;27.956;2024-01-06T01:26:23;98689.50;;;8.59;100.00
18697;BME280;22617;43.690;27.956;2024-01-06T01:31:29;98695.56;;;8.45;100.00
18697;BME280;22617;43.690;27.956;2024-01-06T01:36:32;98697.31;;;8.46;100.00
18697;BME280;22617;43.690;27.956;2024-01-06T01:41:36;98701.63;;;8.45;100.00
18697;BME280;22617;43.690;27.956;2024-01-06T01:46:41;98705.97;;;8.36;100.00
18697;BME280;22617;43.690;27.956;2024-01-06T01:51:45;98698.16;;;8.49;100.00
18697;BME280;22617;43.690;27.956;2024-01-06T01:56:48;98686.91;;;8.23;100.00
18697;BME280;22617;43.690;27.956;2024-01-06T02:01:53;98686.03;;;8.24;100.00
18697;BME280;22617;43.690;27.956;2024-01-06T02:06:57;98675.66;;;8.09;100.00
18697;BME280;22617;43.690;27.956;2024-01-06T02:12:00;98668.72;;;8.18;100.00
18697;BME280;22617;43.690;27.956;2024-01-06T02:17:06;98669.59;;;8.08;100.00
18697;BME280;22617;43.690;27.956;2024-01-06T02:22:11;98655.75;;;8.09;100.00
18697;BME280;22617;43.690;27.956;2024-01-06T02:27:14;98641.03;;;8.22;100.00
18697;BME280;22617;43.690;27.956;2024-01-06T02:32:18;98633.25;;;8.10;100.00
18697;BME280;22617;43.690;27.956;2024-01-06T02:37:23;98630.66;;;8.13;100.00
18697;BME280;22617;43.690;27.956;2024-01-06T02:42:26;98614.22;;;8.14;100.00
18697;BME280;22617;43.690;27.956;2024-01-06T02:47:30;98602.97;;;8.12;100.00
18697;BME280;22617;43.690;27.956;2024-01-06T02:52:36;98611.59;;;8.26;100.00
18697;BME280;22617;43.690;27.956;2024-01-06T02:57:39;98596.03;;;8.41;100.00
18697;BME280;22617;43.690;27.956;2024-01-06T03:02:43;98602.97;;;8.38;100.00
18697;BME280;22617;43.690;27.956;2024-01-06T03:07:48;98596.03;;;8.15;100.00
18697;BME280;22617;43.690;27.956;2024-01-06T03:12:51;98590.84;;;8.15;100.00
18697;BME280;22617;43.690;27.956;2024-01-06T03:17:55;98588.25;;;8.11;100.00
18697;BME280;22617;43.690;27.956;2024-01-06T03:23:00;98581.34;;;8.10;100.00
18697;BME280;22617;43.690;27.956;2024-01-06T03:28:04;98577.88;;;8.21;100.00
18697;BME280;22617;43.690;27.956;2024-01-06T03:33:07;98564.03;;;8.06;100.00
18697;BME280;22617;43.690;27.956;2024-01-06T03:38:12;98567.50;;;8.06;100.00
18697;BME280;22617;43.690;27.956;2024-01-06T03:43:16;98561.44;;;8.12;100.00
18697;BME280;22617;43.690;27.956;2024-01-06T03:48:19;98558.00;;;8.10;100.00
18697;BME280;22617;43.690;27.956;2024-01-06T03:53:24;98571.84;;;7.97;100.00
18697;BME280;22617;43.690;27.956;2024-01-06T03:58:28;98574.41;;;8.16;100.00
18697;BME280;22617;43.690;27.956;2024-01-06T04:03:32;98568.41;;;8.01;100.00
18697;BME280;22617;43.690;27.956;2024-01-06T04:08:39;98569.25;;;8.00;100.00
18697;BME280;22617;43.690;27.956;2024-01-06T04:13:43;98566.66;;;7.94;100.00
18697;BME280;22617;43.690;27.956;2024-01-06T04:18:46;98560.59;;;8.04;100.00
18697;BME280;22617;43.690;27.956;2024-01-06T04:23:52;98552.81;;;8.01;100.00
18697;BME280;22617;43.690;27.956;2024-01-06T04:28:55;98555.41;;;8.01;100.00
18697;BME280;22617;43.690;27.956;2024-01-06T04:33:59;98553.66;;;8.03;100.00
18697;BME280;22617;43.690;27.956;2024-01-06T04:39:04;98558.00;;;7.96;100.00
18697;BME280;22617;43.690;27.956;2024-01-06T04:44:07;98542.41;;;8.14;100.00
18697;BME280;22617;43.690;27.956;2024-01-06T04:49:11;98545.88;;;8.03;100.00
18697;BME280;22617;43.690;27.956;2024-01-06T04:54:16;98535.50;;;8.03;100.00
18697;BME280;22617;43.690;27.956;2024-01-06T04:59:20;98535.47;;;8.12;100.00
18697;BME280;22617;43.690;27.956;2024-01-06T05:04:24;98538.94;;;8.17;100.00
18697;BME280;22617;43.690;27.956;2024-01-06T05:09:29;98532.03;;;8.34;100.00
18697;BME280;22617;43.690;27.956;2024-01-06T05:14:32;98546.72;;;8.38;100.00
18697;BME280;22617;43.690;27.956;2024-01-06T05:19:36;98542.38;;;8.40;100.00
18697;BME280;22617;43.690;27.956;2024-01-06T05:24:41;98540.63;;;8.48;100.00
18697;BME280;22617;43.690;27.956;2024-01-06T05:29:45;98551.91;;;8.49;100.00
18697;BME280;22617;43.690;27.956;2024-01-06T05:34:48;98550.13;;;8.58;100.00
18697;BME280;22617;43.690;27.956;2024-01-06T05:39:54;98546.66;;;8.62;100.00
18697;BME280;22617;43.690;27.956;2024-01-06T05:44:58;98559.56;;;8.74;100.00
18697;BME280;22617;43.690;27.956;2024-01-06T05:50:01;98551.84;;;8.61;100.00
18697;BME280;22617;43.690;27.956;2024-01-06T05:55:07;98565.66;;;8.72;100.00
18697;BME280;22617;43.690;27.956;2024-01-06T06:00:12;98557.88;;;8.67;100.00
18697;BME280;22617;43.690;27.956;2024-01-06T06:05:16;98574.34;;;8.65;100.00
18697;BME280;22617;43.690;27.956;2024-01-06T06:10:21;98566.56;;;8.59;100.00
18697;BME280;22617;43.690;27.956;2024-01-06T06:15:25;98550.94;;;8.69;100.00
18697;BME280;22617;43.690;27.956;2024-01-06T06:20:28;98550.00;;;8.83;100.00
18697;BME280;22617;43.690;27.956;2024-01-06T06:25:33;98547.44;;;8.73;100.00
18697;BME280;22617;43.690;27.956;2024-01-06T06:30:37;98547.41;;;8.83;100.00
18697;BME280;22617;43.690;27.956;2024-01-06T06:35:40;98540.44;;;8.94;100.00
18697;BME280;22617;43.690;27.956;2024-01-06T06:40:45;98528.28;;;9.00;100.00
18697;BME280;22617;43.690;27.956;2024-01-06T06:45:49;98547.25;;;9.13;100.00
18697;BME280;22617;43.690;27.956;2024-01-06T06:50:53;98543.75;;;9.23;100.00
18697;BME280;22617;43.690;27.956;2024-01-06T06:55:58;98538.38;;;9.47;100.00
18697;BME280;22617;43.690;27.956;2024-01-06T07:01:02;98532.09;;;9.76;100.00
18697;BME280;22617;43.690;27.956;2024-01-06T07:06:05;98526.75;;;9.91;100.00
18697;BME280;22617;43.690;27.956;2024-01-06T07:11:10;98540.41;;;10.13;100.00
18697;BME280;22617;43.690;27.956;2024-01-06T07:16:17;98536.91;;;10.21;100.00
18697;BME280;22617;43.690;27.956;2024-01-06T07:21:21;98542.09;;;10.23;100.00
18697;BME280;22617;43.690;27.956;2024-01-06T07:26:26;98538.41;;;10.43;100.00
18697;BME280;22617;43.690;27.956;2024-01-06T07:31:31;98548.63;;;10.60;100.00
18697;BME280;22617;43.690;27.956;2024-01-06T07:36:35;98551.38;;;10.48;100.00
18697;BME280;22617;43.690;27.956;2024-01-06T07:41:39;98535.81;;;10.43;100.00
18697;BME280;22617;43.690;27.956;2024-01-06T07:46:43;98527.66;;;10.71;100.00
18697;BME280;22617;43.690;27.956;2024-01-06T07:51:47;98512.81;;;10.76;100.00
18697;BME280;22617;43.690;27.956;2024-01-06T07:56:52;98518.38;;;11.14;100.00
18697;BME280;22617;43.690;27.956;2024-01-06T08:01:55;98505.88;;;11.37;100.00
18697;BME280;22617;43.690;27.956;2024-01-06T08:06:59;98511.53;;;11.65;100.00
18697;BME280;22617;43.690;27.956;2024-01-06T08:12:05;98505.56;;;12.09;100.00
18697;BME280;22617;43.690;27.956;2024-01-06T08:17:09;98506.34;;;12.14;100.00
18697;BME280;22617;43.690;27.956;2024-01-06T08:22:12;98507.22;;;12.13;100.00
18697;BME280;22617;43.690;27.956;2024-01-06T08:27:17;98498.56;;;12.11;100.00
18697;BME280;22617;43.690;27.956;2024-01-06T08:32:21;98498.81;;;11.98;100.00
18697;BME280;22617;43.690;27.956;2024-01-06T08:37:24;98497.81;;;12.05;100.00
18697;BME280;22617;43.690;27.956;2024-01-06T08:42:29;98494.59;;;11.91;100.00
18697;BME280;22617;43.690;27.956;2024-01-06T08:47:33;98488.72;;;11.79;100.00
18697;BME280;22617;43.690;27.956;2024-01-06T08:52:37;98487.78;;;11.82;100.00
18697;BME280;22617;43.690;27.956;2024-01-06T08:57:42;98487.78;;;11.82;100.00
18697;BME280;22617;43.690;27.956;2024-01-06T09:02:45;98469.22;;;11.97;100.00
18697;BME280;22617;43.690;27.956;2024-01-06T09:07:49;98463.75;;;12.09;100.00
18697;BME280;22617;43.690;27.956;2024-01-06T09:12:58;98453.81;;;12.28;100.00
18697;BME280;22617;43.690;27.956;2024-01-06T09:18:02;98446.75;;;12.33;100.00
18697;BME280;22617;43.690;27.956;2024-01-06T09:23:06;98452.72;;;12.40;100.00
18697;BME280;22617;43.690;27.956;2024-01-06T09:28:11;98458.31;;;12.21;100.00
18697;BME280;22617;43.690;27.956;2024-01-06T09:33:14;98438.19;;;12.68;100.00
18697;BME280;22617;43.690;27.956;2024-01-06T09:38:20;98433.66;;;13.51;100.00
18697;BME280;22617;43.690;27.956;2024-01-06T09:43:24;98419.66;;;13.86;100.00
18697;BME280;22617;43.690;27.956;2024-01-06T09:48:29;98411.63;;;13.60;100.00
18697;BME280;22617;43.690;27.956;2024-01-06T09:53:34;98420.97;;;13.35;100.00
18697;BME280;22617;43.690;27.956;2024-01-06T09:58:41;98410.75;;;13.26;100.00
18697;BME280;22617;43.690;27.956;2024-01-06T10:03:45;98403.63;;;13.32;100.00
18697;BME280;22617;43.690;27.956;2024-01-06T10:08:49;98383.06;;;13.51;100.00
18697;BME280;22617;43.690;27.956;2024-01-06T10:13:55;98376.09;;;13.50;100.00
18697;BME280;22617;43.690;27.956;2024-01-06T10:18:59;98378.69;;;13.51;100.00
18697;BME280;22617;43.690;27.956;2024-01-06T10:24:04;98361.91;;;13.59;100.00
18697;BME280;22617;43.690;27.956;2024-01-06T10:29:12;98346.19;;;13.59;100.00
18697;BME280;22617;43.690;27.956;2024-01-06T10:34:16;98346.91;;;13.65;100.00
18697;BME280;22617;43.690;27.956;2024-01-06T10:39:20;98343.50;;;13.62;100.00
18697;BME280;22617;43.690;27.956;2024-01-06T10:44:26;98339.09;;;13.62;100.00
18697;BME280;22617;43.690;27.956;2024-01-06T10:49:31;98325.13;;;13.63;100.00
18697;BME280;22617;43.690;27.956;2024-01-06T10:54:35;98325.44;;;13.83;100.00
18697;BME280;22617;43.690;27.956;2024-01-06T10:59:41;98314.03;;;13.86;100.00
18697;BME280;22617;43.690;27.956;2024-01-06T11:04:45;98314.56;;;13.97;100.00
18697;BME280;22617;43.690;27.956;2024-01-06T11:09:51;98305.06;;;13.94;100.00
18697;BME280;22617;43.690;27.956;2024-01-06T11:14:57;98300.72;;;13.93;100.00
18697;BME280;22617;43.690;27.956;2024-01-06T11:20:08;98286.59;;;13.97;100.00
18697;BME280;22617;43.690;27.956;2024-01-06T11:25:14;98279.38;;;14.06;100.00
18697;BME280;22617;43.690;27.956;2024-01-06T11:30:25;98284.16;;;14.21;100.00
18697;BME280;22617;43.690;27.956;2024-01-06T11:35:30;98274.97;;;14.37;100.00
18697;BME280;22617;43.690;27.956;2024-01-06T11:40:35;98275.50;;;14.48;100.00
18697;BME280;22617;43.690;27.956;2024-01-06T11:45:41;98272.34;;;14.35;100.00
18697;BME280;22617;43.690;27.956;2024-01-06T11:50:45;98269.41;;;14.48;100.00
18697;BME280;22617;43.690;27.956;2024-01-06T11:55:48;98265.59;;;14.28;100.00
18697;BME280;22617;43.690;27.956;2024-01-06T12:00:56;98258.38;;;14.35;100.00
18697;BME280;22617;43.690;27.956;2024-01-06T12:06:00;98261.41;;;14.23;100.00
18697;BME280;22617;43.690;27.956;2024-01-06T12:11:05;98259.69;;;14.22;100.00
18697;BME280;22617;43.690;27.956;2024-01-06T12:16:11;98263.59;;;14.09;100.00
18697;BME280;22617;43.690;27.956;2024-01-06T12:21:14;98255.16;;;13.97;100.00
18697;BME280;22617;43.690;27.956;2024-01-06T12:26:18;98252.84;;;13.87;100.00
18697;BME280;22617;43.690;27.956;2024-01-06T12:31:23;98250.19;;;13.88;100.00
18697;BME280;22617;43.690;27.956;2024-01-06T12:36:27;98256.41;;;13.86;100.00
18697;BME280;22617;43.690;27.956;2024-01-06T12:41:31;98244.97;;;13.88;100.00
18697;BME280;22617;43.690;27.956;2024-01-06T12:46:38;98243.75;;;14.00;100.00
18697;BME280;22617;43.690;27.956;2024-01-06T12:51:42;98245.44;;;14.01;100.00
18697;BME280;22617;43.690;27.956;2024-01-06T12:56:45;98244.59;;;14.01;100.00
18697;BME280;22617;43.690;27.956;2024-01-06T13:01:50;98244.34;;;14.10;100.00
18697;BME280;22617;43.690;27.956;2024-01-06T13:06:54;98240.78;;;14.11;100.00
18697;BME280;22617;43.690;27.956;2024-01-06T13:12:01;98239.44;;;13.97;100.00
18697;BME280;22617;43.690;27.956;2024-01-06T13:17:06;98240.47;;;13.92;100.00
18697;BME280;22617;43.690;27.956;2024-01-06T13:22:11;98231.41;;;13.74;100.00
18697;BME280;22617;43.690;27.956;2024-01-06T13:27:15;98227.19;;;13.70;100.00
18697;BME280;22617;43.690;27.956;2024-01-06T13:32:20;98211.34;;;13.73;100.00
18697;BME280;22617;43.690;27.956;2024-01-06T13:37:25;98210.59;;;13.99;100.00
18697;BME280;22617;43.690;27.956;2024-01-06T13:42:29;98209.34;;;14.11;100.00
18697;BME280;22617;43.690;27.956;2024-01-06T13:47:34;98206.19;;;14.29;100.00
18697;BME280;22617;43.690;27.956;2024-01-06T13:52:38;98214.69;;;14.35;100.00
18697;BME280;22617;43.690;27.956;2024-01-06T13:57:41;98223.03;;;14.20;100.00
18697;BME280;22617;43.690;27.956;2024-01-06T14:02:46;98220.66;;;14.13;100.00
18697;BME280;22617;43.690;27.956;2024-01-06T14:07:50;98228.88;;;14.01;100.00
18697;BME280;22617;43.690;27.956;2024-01-06T14:12:54;98225.94;;;13.82;100.00
18697;BME280;22617;43.690;27.956;2024-01-06T14:17:59;98223.88;;;13.64;100.00
18697;BME280;22617;43.690;27.956;2024-01-06T14:23:02;98212.44;;;13.37;100.00
18697;BME280;22617;43.690;27.956;2024-01-06T14:28:06;98225.94;;;13.22;100.00
18697;BME280;22617;43.690;27.956;2024-01-06T14:33:11;98223.78;;;13.03;100.00
18697;BME280;22617;43.690;27.956;2024-01-06T14:38:14;98222.16;;;12.64;100.00
18697;BME280;22617;43.690;27.956;2024-01-06T14:43:18;98221.75;;;12.45;100.00
18697;BME280;22617;43.690;27.956;2024-01-06T14:48:24;98224.34;;;12.47;100.00
18697;BME280;22617;43.690;27.956;2024-01-06T14:53:28;98223.00;;;12.29;100.00
18697;BME280;22617;43.690;27.956;2024-01-06T14:58:31;98224.16;;;12.17;100.00
18697;BME280;22617;43.690;27.956;2024-01-06T15:03:36;98226.13;;;12.08;100.00
18697;BME280;22617;43.690;27.956;2024-01-06T15:08:39;98232.34;;;12.02;100.00
18697;BME280;22617;43.690;27.956;2024-01-06T15:13:43;98229.41;;;11.76;100.00
18697;BME280;22617;43.690;27.956;2024-01-06T15:18:49;98215.63;;;11.69;100.00
18697;BME280;22617;43.690;27.956;2024-01-06T15:23:53;98220.94;;;11.65;100.00
18697;BME280;22617;43.690;27.956;2024-01-06T15:28:57;98224.66;;;11.53;100.00
18697;BME280;22617;43.690;27.956;2024-01-06T15:34:04;98203.69;;;11.56;100.00
18697;BME280;22617;43.690;27.956;2024-01-06T15:39:07;98203.81;;;11.52;100.00
18697;BME280;22617;43.690;27.956;2024-01-06T15:44:12;98208.03;;;11.57;100.00
18697;BME280;22617;43.690;27.956;2024-01-06T15:49:17;98206.47;;;11.50;100.00
18697;BME280;22617;43.690;27.956;2024-01-06T15:54:22;98208.41;;;11.41;100.00
18697;BME280;22617;43.690;27.956;2024-01-06T15:59:25;98215.41;;;11.37;100.00
18697;BME280;22617;43.690;27.956;2024-01-06T16:04:31;98197.19;;;11.35;100.00
18697;BME280;22617;43.690;27.956;2024-01-06T16:09:34;98186.94;;;11.26;100.00
18697;BME280;22617;43.690;27.956;2024-01-06T16:14:38;98178.03;;;11.36;100.00
18697;BME280;22617;43.690;27.956;2024-01-06T16:19:43;98180.19;;;11.58;100.00
18697;BME280;22617;43.690;27.956;2024-01-06T16:24:46;98183.28;;;11.78;100.00
18697;BME280;22617;43.690;27.956;2024-01-06T16:29:50;98183.31;;;11.75;100.00
18697;BME280;22617;43.690;27.956;2024-01-06T16:34:56;98185.91;;;11.35;100.00
18697;BME280;22617;43.690;27.956;2024-01-06T16:40:00;98187.53;;;11.41;100.00
18697;BME280;22617;43.690;27.956;2024-01-06T16:45:06;98193.69;;;11.36;100.00
18697;BME280;22617;43.690;27.956;2024-01-06T16:50:12;98191.13;;;11.33;100.00
18697;BME280;22617;43.690;27.956;2024-01-06T16:55:15;98205.91;;;11.34;100.00
18697;BME280;22617;43.690;27.956;2024-01-06T17:00:20;98206.81;;;11.32;100.00
18697;BME280;22617;43.690;27.956;2024-01-06T17:05:25;98197.41;;;11.23;100.00
18697;BME280;22617;43.690;27.956;2024-01-06T17:10:29;98192.19;;;11.23;100.00
18697;BME280;22617;43.690;27.956;2024-01-06T17:15:34;98201.09;;;11.13;100.00
18697;BME280;22617;43.690;27.956;2024-01-06T17:20:39;98195.84;;;11.15;100.00
18697;BME280;22617;43.690;27.956;2024-01-06T17:25:44;98188.06;;;11.13;100.00
18697;BME280;22617;43.690;27.956;2024-01-06T17:30:48;98177.09;;;10.96;100.00
18697;BME280;22617;43.690;27.956;2024-01-06T17:35:53;98172.09;;;10.84;100.00
18697;BME280;22617;43.690;27.956;2024-01-06T17:40:57;98171.34;;;10.79;100.00
18697;BME280;22617;43.690;27.956;2024-01-06T17:46:00;98160.94;;;10.79;100.00
18697;BME280;22617;43.690;27.956;2024-01-06T17:51:06;98152.94;;;10.86;100.00
18697;BME280;22617;43.690;27.956;2024-01-06T17:56:09;98148.00;;;10.73;100.00
18697;BME280;22617;43.690;27.956;2024-01-06T18:01:13;98143.03;;;11.04;100.00
18697;BME280;22617;43.690;27.956;2024-01-06T18:06:21;98143.19;;;11.41;100.00
18697;BME280;22617;43.690;27.956;2024-01-06T18:11:26;98137.81;;;11.47;100.00
18697;BME280;22617;43.690;27.956;2024-01-06T18:16:29;98134.72;;;11.69;100.00
18697;BME280;22617;43.690;27.956;2024-01-06T18:21:34;98132.38;;;11.96;100.00
18697;BME280;22617;43.690;27.956;2024-01-06T18:26:38;98136.38;;;11.72;100.00
18697;BME280;22617;43.690;27.956;2024-01-06T18:31:49;98132.22;;;11.65;100.00
18697;BME280;22617;43.690;27.956;2024-01-06T18:36:56;98119.19;;;11.62;100.00
18697;BME280;22617;43.690;27.956;2024-01-06T18:42:00;98119.44;;;11.51;100.00
18697;BME280;22617;43.690;27.956;2024-01-06T18:47:04;98119.53;;;11.47;100.00
18697;BME280;22617;43.690;27.956;2024-01-06T18:52:13;98117.09;;;11.41;100.00
18697;BME280;22617;43.690;27.956;2024-01-06T18:57:17;98115.59;;;11.29;100.00
18697;BME280;22617;43.690;27.956;2024-01-06T19:02:21;98111.06;;;11.37;100.00
18697;BME280;22617;43.690;27.956;2024-01-06T19:07:27;98104.81;;;11.46;100.00
18697;BME280;22617;43.690;27.956;2024-01-06T19:12:31;98103.00;;;11.48;100.00
18697;BME280;22617;43.690;27.956;2024-01-06T19:17:36;98087.84;;;11.65;100.00
18697;BME280;22617;43.690;27.956;2024-01-06T19:22:41;98102.16;;;11.86;100.00
18697;BME280;22617;43.690;27.956;2024-01-06T19:28:04;98081.03;;;11.95;100.00
18697;BME280;22617;43.690;27.956;2024-01-06T19:33:08;98076.44;;;12.04;100.00
18697;BME280;22617;43.690;27.956;2024-01-06T19:38:13;98071.22;;;12.04;100.00
18697;BME280;22617;43.690;27.956;2024-01-06T19:43:21;98058.22;;;12.03;100.00
18697;BME280;22617;43.690;27.956;2024-01-06T19:48:26;98057.50;;;11.96;100.00
18697;BME280;22617;43.690;27.956;2024-01-06T19:53:31;98037.91;;;12.14;100.00
18697;BME280;22617;43.690;27.956;2024-01-06T19:58:35;98053.56;;;12.48;100.00
18697;BME280;22617;43.690;27.956;2024-01-06T20:03:38;98052.88;;;12.41;100.00
18697;BME280;22617;43.690;27.956;2024-01-06T20:08:44;98052.91;;;12.40;100.00
18697;BME280;22617;43.690;27.956;2024-01-06T20:13:48;98048.81;;;12.30;100.00
18697;BME280;22617;43.690;27.956;2024-01-06T20:18:53;98029.06;;;12.19;100.00
18697;BME280;22617;43.690;27.956;2024-01-06T20:23:58;98018.75;;;12.13;100.00
18697;BME280;22617;43.690;27.956;2024-01-06T20:29:02;98016.13;;;12.13;100.00
18697;BME280;22617;43.690;27.956;2024-01-06T20:34:06;98001.84;;;11.94;100.00
18697;BME280;22617;43.690;27.956;2024-01-06T20:39:11;97994.28;;;12.17;100.00
18697;BME280;22617;43.690;27.956;2024-01-06T20:44:14;97988.91;;;12.54;100.00
18697;BME280;22617;43.690;27.956;2024-01-06T20:49:18;97976.34;;;12.67;100.00
18697;BME280;22617;43.690;27.956;2024-01-06T20:54:23;97991.13;;;12.68;100.00
18697;BME280;22617;43.690;27.956;2024-01-06T20:59:26;97982.53;;;12.64;100.00
18697;BME280;22617;43.690;27.956;2024-01-06T21:04:32;97981.94;;;12.55;100.00
18697;BME280;22617;43.690;27.956;2024-01-06T21:09:37;97971.78;;;12.44;100.00
18697;BME280;22617;43.690;27.956;2024-01-06T21:14:41;97963.34;;;12.35;100.00
18697;BME280;22617;43.690;27.956;2024-01-06T21:19:44;97963.44;;;12.32;100.00
18697;BME280;22617;43.690;27.956;2024-01-06T21:24:51;97967.91;;;12.57;100.00
18697;BME280;22617;43.690;27.956;2024-01-06T21:29:54;97945.31;;;12.56;100.00
18697;BME280;22617;43.690;27.956;2024-01-06T21:34:58;97938.28;;;12.86;100.00
18697;BME280;22617;43.690;27.956;2024-01-06T21:40:07;97940.03;;;12.86;100.00
18697;BME280;22617;43.690;27.956;2024-01-06T21:45:11;97936.78;;;12.79;100.00
18697;BME280;22617;43.690;27.956;2024-01-06T21:50:15;97932.72;;;12.69;100.00
18697;BME280;22617;43.690;27.956;2024-01-06T21:55:20;97931.09;;;12.65;100.00
18697;BME280;22617;43.690;27.956;2024-01-06T22:00:23;97950.88;;;12.44;100.00
18697;BME280;22617;43.690;27.956;2024-01-06T22:05:27;97956.06;;;12.46;100.00
18697;BME280;22617;43.690;27.956;2024-01-06T22:10:32;97958.69;;;12.44;100.00
18697;BME280;22617;43.690;27.956;2024-01-06T22:15:35;97950.38;;;12.32;100.00
18697;BME280;22617;43.690;27.956;2024-01-06T22:20:39;97950.50;;;12.27;100.00
18697;BME280;22617;43.690;27.956;2024-01-06T22:25:43;97951.41;;;12.24;100.00
18697;BME280;22617;43.690;27.956;2024-01-06T22:30:47;97946.19;;;12.24;100.00
18697;BME280;22617;43.690;27.956;2024-01-06T22:35:50;97933.38;;;12.15;100.00
18697;BME280;22617;43.690;27.956;2024-01-06T22:40:55;97921.69;;;12.29;100.00
18697;BME280;22617;43.690;27.956;2024-01-06T22:46:00;97899.22;;;12.23;100.00
18697;BME280;22617;43.690;27.956;2024-01-06T22:51:04;97893.72;;;12.03;100.00
18697;BME280;22617;43.690;27.956;2024-01-06T22:56:10;97888.88;;;11.89;100.00
18697;BME280;22617;43.690;27.956;2024-01-06T23:01:13;97881.03;;;11.89;100.00
18697;BME280;22617;43.690;27.956;2024-01-06T23:06:17;97877.69;;;11.84;100.00
18697;BME280;22617;43.690;27.956;2024-01-06T23:11:22;97874.34;;;11.79;100.00
18697;BME280;22617;43.690;27.956;2024-01-06T23:16:25;97877.75;;;11.81;100.00
18697;BME280;22617;43.690;27.956;2024-01-06T23:21:30;97876.72;;;11.87;100.00
18697;BME280;22617;43.690;27.956;2024-01-06T23:26:35;97875.38;;;11.73;100.00
18697;BME280;22617;43.690;27.956;2024-01-06T23:31:38;97867.97;;;11.89;100.00
18697;BME280;22617;43.690;27.956;2024-01-06T23:36:42;97860.19;;;11.88;100.00
18697;BME280;22617;43.690;27.956;2024-01-06T23:41:47;97860.91;;;11.93;100.00
18697;BME280;22617;43.690;27.956;2024-01-06T23:46:50;97855.94;;;11.84;100.00
18697;BME280;22617;43.690;27.956;2024-01-06T23:51:54;97853.28;;;11.85;100.00
18697;BME280;22617;43.690;27.956;2024-01-06T23:56:59;97847.31;;;11.80;100.00
